Stations météo

réclame
Mon MeteoGroup
Nidingen, Suède (2518): Température de l'air & dewpoint: 11.12.2018 01:00:00 - 17.12.2018 01:00:00 (CET)Nidingen, Suède (2518): Vitesse du vent & gusts: 11.12.2018 01:00:00 - 17.12.2018 01:00:00 (CET)Nidingen, Suède (2518): Direction du vent: 11.12.2018 01:00:00 - 17.12.2018 01:00:00 (CET)
Date & Time tt [°C] td [°C] ff [km/h] ff [knt] fx [km/h] fx [knt] dd
17.12.2018 01:00:00 1,4 -0,1 8 5 18 10 SSE
17.12.2018 00:00:00 1,6 0,1 13 7 18 10 SE
16.12.2018 23:00:00 1,4 0,1 13 7 19 10 SE
16.12.2018 22:00:00 1,7 0,5 14 8 19 10 ESE
16.12.2018 21:00:00 1,1 -0,1 11 6 19 10 E
16.12.2018 20:00:00 1,2 0,5 13 7 19 10 E
16.12.2018 19:00:00 1,0 0,1 10 5 28 15 E
16.12.2018 18:00:00 1,5 0,0 18 10 28 15 E
16.12.2018 17:00:00 1,8 -0,3 23 12 29 16 E
16.12.2018 16:00:00 2,1 -0,2 23 12 29 16 ESE
16.12.2018 15:00:00 2,3 0,4 22 12 29 16 E
16.12.2018 14:00:00 2,3 -1,5 22 12 31 17 ESE
16.12.2018 13:00:00 2,4 -1,2 22 12 41 22 ESE
16.12.2018 12:00:00 2,6 0,0 27 14 41 22 ESE
16.12.2018 11:00:00 2,8 0,2 30 16 42 23 SE
16.12.2018 10:00:00 2,9 0,1 31 17 42 23 SE
16.12.2018 09:00:00 2,7 0,3 28 15 36 19 ESE
16.12.2018 08:00:00 2,7 0,2 29 16 40 21 ESE
16.12.2018 07:00:00 2,6 0,7 27 15 41 22 ESE
16.12.2018 06:00:00 2,6 0,7 31 17 42 23 ESE
16.12.2018 05:00:00 2,6 0,1 32 18 40 21 ESE
16.12.2018 04:00:00 2,7 0,6 34 18 44 24 ESE
16.12.2018 03:00:00 2,7 0,6 33 18 44 24 ESE
16.12.2018 02:00:00 2,5 0,4 34 19 48 26 ESE
16.12.2018 01:00:00 2,4 0,1 36 19 48 26 ESE
16.12.2018 00:00:00 2,0 -0,3 32 18 40 21 ESE
15.12.2018 23:00:00 1,9 -0,4 31 17 42 23 ESE
15.12.2018 22:00:00 - - - - 42 23 -
15.12.2018 21:00:00 1,8 -0,8 29 16 49 26 E
15.12.2018 20:00:00 1,6 -1,0 31 17 49 26 E
15.12.2018 19:00:00 1,5 -0,9 38 21 45 24 ESE
15.12.2018 18:00:00 1,9 -1,2 30 16 39 21 E
15.12.2018 17:00:00 2,1 -1,9 29 16 37 20 ESE
15.12.2018 16:00:00 1,9 -2,1 31 17 37 20 E
15.12.2018 15:00:00 2,0 -1,8 31 17 37 20 E
15.12.2018 14:00:00 2,2 -2,0 29 16 36 19 ESE
15.12.2018 13:00:00 2,2 -1,4 27 15 34 18 ESE
15.12.2018 12:00:00 2,1 -1,3 26 14 34 18 ESE
15.12.2018 11:00:00 2,1 -1,3 24 13 32 18 ESE
15.12.2018 10:00:00 2,1 -1,2 24 13 32 18 ESE
15.12.2018 09:00:00 1,9 -1,4 28 15 32 18 ESE
15.12.2018 08:00:00 1,9 -1,2 25 14 32 17 ESE
15.12.2018 07:00:00 1,9 -0,8 24 13 34 18 ESE
15.12.2018 06:00:00 1,8 -1,3 26 14 34 18 E
15.12.2018 05:00:00 1,7 -1,0 24 13 33 18 E
15.12.2018 04:00:00 1,6 -1,3 25 13 34 18 E
15.12.2018 03:00:00 1,4 -1,7 27 14 37 20 E
15.12.2018 02:00:00 1,6 -1,5 29 16 38 21 E
15.12.2018 01:00:00 1,7 -2,1 32 18 40 21 E
15.12.2018 00:00:00 2,0 -1,4 29 16 37 20 E
14.12.2018 23:00:00 1,9 -2,2 29 16 36 19 E
14.12.2018 22:00:00 2,1 -1,5 25 14 36 19 ENE
14.12.2018 21:00:00 2,1 -2,0 27 14 35 19 E
14.12.2018 20:00:00 2,2 -1,6 27 15 34 18 ENE
14.12.2018 19:00:00 2,2 -1,1 26 14 38 21 ENE
14.12.2018 18:00:00 2,3 -1,1 27 15 38 21 ENE
14.12.2018 17:00:00 2,2 -1,2 25 14 32 18 ENE
14.12.2018 16:00:00 2,3 -1,3 26 14 32 17 ENE
14.12.2018 15:00:00 2,3 -1,1 26 14 32 17 ENE
14.12.2018 14:00:00 2,4 -0,9 23 13 31 17 ENE
14.12.2018 13:00:00 2,5 -1,1 23 13 32 18 ENE
14.12.2018 12:00:00 2,3 -0,6 26 14 34 18 ENE
14.12.2018 11:00:00 2,0 -0,7 26 14 38 20 ENE
14.12.2018 10:00:00 2,0 -0,6 25 13 40 22 ENE
14.12.2018 09:00:00 1,7 -0,7 29 16 40 22 E
14.12.2018 08:00:00 1,4 -1,0 29 15 39 21 ENE
14.12.2018 07:00:00 1,5 -1,1 31 17 39 21 ENE
14.12.2018 06:00:00 1,4 -1,2 32 17 50 27 ENE
14.12.2018 05:00:00 1,2 -1,2 32 18 50 27 ENE
14.12.2018 04:00:00 1,1 -1,0 37 20 49 27 ENE
14.12.2018 03:00:00 1,4 -1,0 41 22 48 26 ENE
14.12.2018 02:00:00 1,5 -1,2 32 18 46 25 ENE
14.12.2018 01:00:00 1,5 -1,4 35 19 47 25 ENE
14.12.2018 00:00:00 1,4 -1,3 36 20 47 25 ENE
13.12.2018 23:00:00 1,3 -1,3 37 20 47 25 ENE
13.12.2018 22:00:00 1,1 -1,5 36 19 46 25 NE
13.12.2018 21:00:00 1,0 -1,9 37 20 46 25 NE
13.12.2018 20:00:00 1,2 -2,4 29 16 38 20 NE
13.12.2018 19:00:00 1,5 -2,8 27 14 38 20 NE
13.12.2018 18:00:00 1,7 -2,4 27 15 35 19 NE
13.12.2018 17:00:00 2,2 -2,0 27 15 35 19 NE
13.12.2018 16:00:00 2,4 -2,3 27 15 36 19 ENE
13.12.2018 15:00:00 2,6 -1,6 29 15 36 19 ENE
13.12.2018 14:00:00 2,3 -0,8 29 16 35 19 NE
13.12.2018 13:00:00 2,0 -1,3 26 14 35 19 ENE
13.12.2018 12:00:00 1,8 -0,9 25 13 35 19 ENE
13.12.2018 11:00:00 1,3 -1,3 25 13 33 18 ENE
13.12.2018 10:00:00 1,1 -1,6 26 14 32 17 ENE
13.12.2018 09:00:00 0,9 -1,8 19 10 26 14 ENE
13.12.2018 08:00:00 0,6 -2,0 17 9 26 14 ENE
13.12.2018 07:00:00 0,4 -1,8 18 10 27 15 ENE
13.12.2018 06:00:00 0,5 -1,4 22 12 27 15 NE
13.12.2018 05:00:00 0,1 -2,6 19 10 24 13 NNE
13.12.2018 04:00:00 0,5 -2,4 20 11 24 13 NNE
13.12.2018 03:00:00 0,4 -2,5 17 9 24 13 NNE
13.12.2018 02:00:00 0,3 -2,7 18 10 29 15 NE
13.12.2018 01:00:00 0,4 -2,6 14 8 29 15 E
13.12.2018 00:00:00 0,9 -2,2 18 10 29 15 ESE
12.12.2018 23:00:00 0,8 -2,3 18 10 31 17 E
12.12.2018 22:00:00 0,7 -2,2 18 10 34 18 E
12.12.2018 21:00:00 0,9 -1,8 22 12 34 18 ENE
12.12.2018 20:00:00 0,2 -1,9 21 12 33 18 E
12.12.2018 19:00:00 0,6 -1,5 19 10 30 16 ENE
12.12.2018 18:00:00 1,0 -0,9 19 10 29 16 ENE
12.12.2018 17:00:00 1,0 -1,1 19 10 28 15 NE
12.12.2018 16:00:00 1,4 -0,8 18 10 29 16 NE
12.12.2018 15:00:00 1,8 -0,6 19 10 29 16 NNE
12.12.2018 14:00:00 2,0 -0,6 17 9 26 14 NE
12.12.2018 13:00:00 2,4 -0,4 17 9 23 13 NNE
12.12.2018 12:00:00 2,9 -0,2 13 7 19 10 NE
12.12.2018 11:00:00 2,6 -0,8 10 5 21 11 ENE
12.12.2018 10:00:00 3,1 -0,5 11 6 24 13 ENE
12.12.2018 09:00:00 3,1 -0,4 13 7 26 14 E
12.12.2018 08:00:00 3,2 -0,4 15 8 26 14 ENE
12.12.2018 07:00:00 3,2 -0,6 14 8 30 16 ENE
12.12.2018 06:00:00 3,0 -0,1 19 10 31 17 E
12.12.2018 05:00:00 3,5 0,7 24 13 31 17 ENE
12.12.2018 04:00:00 3,3 0,5 18 10 27 15 NE
12.12.2018 03:00:00 3,0 0,4 18 10 25 14 NNE
12.12.2018 02:00:00 3,0 0,4 17 9 27 15 NE
12.12.2018 01:00:00 2,9 0,1 20 11 31 17 NNE
12.12.2018 00:00:00 3,3 0,4 19 10 31 17 NNE
11.12.2018 23:00:00 3,2 0,3 21 11 35 19 NNE
11.12.2018 22:00:00 3,5 0,4 21 11 38 20 NE
11.12.2018 21:00:00 3,6 0,5 27 15 40 22 NE
11.12.2018 20:00:00 3,6 0,6 30 16 40 22 NE
11.12.2018 19:00:00 3,5 0,7 26 14 35 19 NNE
11.12.2018 18:00:00 3,0 0,7 27 14 39 21 NNE
11.12.2018 17:00:00 3,2 1,1 25 13 42 23 NNE
11.12.2018 16:00:00 3,7 1,2 31 17 44 24 N
11.12.2018 15:00:00 4,1 1,3 32 17 45 24 NNE
11.12.2018 14:00:00 4,7 1,5 35 19 47 26 NNE
11.12.2018 13:00:00 4,7 1,7 33 18 47 26 NNE
11.12.2018 12:00:00 4,4 1,8 33 18 40 22 N
11.12.2018 11:00:00 4,3 1,7 29 16 39 21 NNE
11.12.2018 10:00:00 4,3 1,3 29 16 47 25 N
11.12.2018 09:00:00 4,2 1,4 35 19 45 25 N
11.12.2018 08:00:00 4,2 1,6 31 17 44 24 N
11.12.2018 07:00:00 4,0 1,2 29 15 51 27 NNE
11.12.2018 06:00:00 4,0 1,0 29 16 51 27 N
11.12.2018 05:00:00 4,2 1,2 36 20 53 28 NNE
11.12.2018 04:00:00 4,2 1,1 40 22 53 28 N
11.12.2018 03:00:00 4,3 0,8 41 22 51 27 N
11.12.2018 02:00:00 4,6 1,0 36 19 50 27 N
11.12.2018 01:00:00 4,7 1,2 36 19 54 29 N

tt = Température de l'air
td = dewpoint
ff = Vitesse du vent
fx = gusts
dd = Direction du vent

stations d'obs. à proximité